sensor_id;sensor_type;location;lat;lon;timestamp;temperature;humidity
8372;DHT22;4223;48.724;8.982;2022-11-15T00:00:44;7.40;99.90
8372;DHT22;4223;48.724;8.982;2022-11-15T00:03:13;7.40;99.90
8372;DHT22;4223;48.724;8.982;2022-11-15T00:05:40;7.40;99.90
8372;DHT22;4223;48.724;8.982;2022-11-15T00:08:07;7.40;99.90
8372;DHT22;4223;48.724;8.982;2022-11-15T00:10:35;7.50;99.90
8372;DHT22;4223;48.724;8.982;2022-11-15T00:13:05;7.50;99.90
8372;DHT22;4223;48.724;8.982;2022-11-15T00:15:34;7.50;99.90
8372;DHT22;4223;48.724;8.982;2022-11-15T00:18:01;7.50;99.90
8372;DHT22;4223;48.724;8.982;2022-11-15T00:20:28;7.40;99.90
8372;DHT22;4223;48.724;8.982;2022-11-15T00:22:55;7.30;99.90
8372;DHT22;4223;48.724;8.982;2022-11-15T00:25:22;7.30;99.90
8372;DHT22;4223;48.724;8.982;2022-11-15T00:27:52;7.30;99.90
8372;DHT22;4223;48.724;8.982;2022-11-15T00:30:21;7.30;99.90
8372;DHT22;4223;48.724;8.982;2022-11-15T00:32:48;7.30;99.90
8372;DHT22;4223;48.724;8.982;2022-11-15T00:35:15;7.20;99.90
8372;DHT22;4223;48.724;8.982;2022-11-15T00:37:42;7.20;99.90
8372;DHT22;4223;48.724;8.982;2022-11-15T00:40:10;7.10;99.90
8372;DHT22;4223;48.724;8.982;2022-11-15T00:42:38;7.10;99.90
8372;DHT22;4223;48.724;8.982;2022-11-15T00:45:07;7.00;99.90
8372;DHT22;4223;48.724;8.982;2022-11-15T00:47:34;6.80;99.90
8372;DHT22;4223;48.724;8.982;2022-11-15T00:50:01;6.80;99.90
8372;DHT22;4223;48.724;8.982;2022-11-15T00:52:28;6.70;99.90
8372;DHT22;4223;48.724;8.982;2022-11-15T00:54:55;6.50;99.90
8372;DHT22;4223;48.724;8.982;2022-11-15T00:57:22;6.40;99.90
8372;DHT22;4223;48.724;8.982;2022-11-15T00:59:49;6.30;99.90
8372;DHT22;4223;48.724;8.982;2022-11-15T01:02:17;6.20;99.90
8372;DHT22;4223;48.724;8.982;2022-11-15T01:04:44;6.10;99.90
8372;DHT22;4223;48.724;8.982;2022-11-15T01:07:11;6.00;99.90
8372;DHT22;4223;48.724;8.982;2022-11-15T01:09:38;5.90;99.90
8372;DHT22;4223;48.724;8.982;2022-11-15T01:12:05;5.90;99.90
8372;DHT22;4223;48.724;8.982;2022-11-15T01:14:34;5.90;99.90
8372;DHT22;4223;48.724;8.982;2022-11-15T01:17:00;5.80;99.90
8372;DHT22;4223;48.724;8.982;2022-11-15T01:19:29;5.80;99.90
8372;DHT22;4223;48.724;8.982;2022-11-15T01:21:55;6.00;99.90
8372;DHT22;4223;48.724;8.982;2022-11-15T01:24:22;6.00;99.90
8372;DHT22;4223;48.724;8.982;2022-11-15T01:26:49;6.00;99.90
8372;DHT22;4223;48.724;8.982;2022-11-15T01:29:16;6.00;99.90
8372;DHT22;4223;48.724;8.982;2022-11-15T01:31:43;6.00;99.90
8372;DHT22;4223;48.724;8.982;2022-11-15T01:34:10;6.10;99.90
8372;DHT22;4223;48.724;8.982;2022-11-15T01:36:38;6.90;99.90
8372;DHT22;4223;48.724;8.982;2022-11-15T01:39:05;6.20;99.90
8372;DHT22;4223;48.724;8.982;2022-11-15T01:41:32;6.40;99.90
8372;DHT22;4223;48.724;8.982;2022-11-15T01:47:01;6.50;99.90
8372;DHT22;4223;48.724;8.982;2022-11-15T01:49:31;6.60;99.90
8372;DHT22;4223;48.724;8.982;2022-11-15T01:52:03;6.60;99.90
8372;DHT22;4223;48.724;8.982;2022-11-15T01:54:31;6.60;99.90
8372;DHT22;4223;48.724;8.982;2022-11-15T01:57:00;6.50;99.90
8372;DHT22;4223;48.724;8.982;2022-11-15T01:59:28;6.50;99.90
8372;DHT22;4223;48.724;8.982;2022-11-15T02:01:55;6.40;99.90
8372;DHT22;4223;48.724;8.982;2022-11-15T02:04:25;6.40;99.90
8372;DHT22;4223;48.724;8.982;2022-11-15T02:06:53;6.30;99.90
8372;DHT22;4223;48.724;8.982;2022-11-15T02:09:21;6.30;99.90
8372;DHT22;4223;48.724;8.982;2022-11-15T02:11:48;6.40;99.90
8372;DHT22;4223;48.724;8.982;2022-11-15T02:14:18;6.40;99.90
8372;DHT22;4223;48.724;8.982;2022-11-15T02:16:51;6.50;99.90
8372;DHT22;4223;48.724;8.982;2022-11-15T02:19:40;6.60;99.90
8372;DHT22;4223;48.724;8.982;2022-11-15T02:22:21;6.70;99.90
8372;DHT22;4223;48.724;8.982;2022-11-15T02:25:08;6.80;99.90
8372;DHT22;4223;48.724;8.982;2022-11-15T02:27:58;6.90;99.90
8372;DHT22;4223;48.724;8.982;2022-11-15T02:30:33;6.90;99.90
8372;DHT22;4223;48.724;8.982;2022-11-15T02:33:06;7.00;99.90
8372;DHT22;4223;48.724;8.982;2022-11-15T02:35:39;7.00;99.90
8372;DHT22;4223;48.724;8.982;2022-11-15T02:38:18;7.10;99.90
8372;DHT22;4223;48.724;8.982;2022-11-15T02:40:52;7.00;99.90
8372;DHT22;4223;48.724;8.982;2022-11-15T02:43:28;7.00;99.90
8372;DHT22;4223;48.724;8.982;2022-11-15T02:46:16;7.00;99.90
8372;DHT22;4223;48.724;8.982;2022-11-15T02:48:44;7.00;99.90
8372;DHT22;4223;48.724;8.982;2022-11-15T02:51:12;6.90;99.90
8372;DHT22;4223;48.724;8.982;2022-11-15T02:53:40;6.90;99.90
8372;DHT22;4223;48.724;8.982;2022-11-15T02:56:09;6.80;99.90
8372;DHT22;4223;48.724;8.982;2022-11-15T02:58:58;6.70;99.90
8372;DHT22;4223;48.724;8.982;2022-11-15T03:01:37;6.50;99.90
8372;DHT22;4223;48.724;8.982;2022-11-15T03:04:16;6.40;99.90
8372;DHT22;4223;48.724;8.982;2022-11-15T03:06:49;6.40;99.90
8372;DHT22;4223;48.724;8.982;2022-11-15T03:09:28;6.30;99.90
8372;DHT22;4223;48.724;8.982;2022-11-15T03:11:59;6.30;99.90
8372;DHT22;4223;48.724;8.982;2022-11-15T03:14:32;6.20;99.90
8372;DHT22;4223;48.724;8.982;2022-11-15T03:17:04;6.20;99.90
8372;DHT22;4223;48.724;8.982;2022-11-15T03:19:38;6.20;99.90
8372;DHT22;4223;48.724;8.982;2022-11-15T03:22:09;6.20;99.90
8372;DHT22;4223;48.724;8.982;2022-11-15T03:24:38;6.20;99.90
8372;DHT22;4223;48.724;8.982;2022-11-15T03:27:07;6.20;99.90
8372;DHT22;4223;48.724;8.982;2022-11-15T03:29:38;6.20;99.90
8372;DHT22;4223;48.724;8.982;2022-11-15T03:32:11;6.10;99.90
8372;DHT22;4223;48.724;8.982;2022-11-15T03:34:44;6.10;99.90
8372;DHT22;4223;48.724;8.982;2022-11-15T03:37:13;6.10;99.90
8372;DHT22;4223;48.724;8.982;2022-11-15T03:39:41;6.10;99.90
8372;DHT22;4223;48.724;8.982;2022-11-15T03:42:16;6.10;99.90
8372;DHT22;4223;48.724;8.982;2022-11-15T03:44:51;6.10;99.90
8372;DHT22;4223;48.724;8.982;2022-11-15T03:47:25;6.00;99.90
8372;DHT22;4223;48.724;8.982;2022-11-15T03:49:57;6.00;99.90
8372;DHT22;4223;48.724;8.982;2022-11-15T03:52:25;6.00;99.90
8372;DHT22;4223;48.724;8.982;2022-11-15T03:54:53;5.90;99.90
8372;DHT22;4223;48.724;8.982;2022-11-15T03:57:21;5.90;99.90
8372;DHT22;4223;48.724;8.982;2022-11-15T03:59:48;5.90;99.90
8372;DHT22;4223;48.724;8.982;2022-11-15T04:02:16;5.90;99.90
8372;DHT22;4223;48.724;8.982;2022-11-15T04:04:44;5.90;99.90
8372;DHT22;4223;48.724;8.982;2022-11-15T04:07:11;5.80;99.90
8372;DHT22;4223;48.724;8.982;2022-11-15T04:09:38;5.80;99.90
8372;DHT22;4223;48.724;8.982;2022-11-15T04:12:25;5.90;99.90
8372;DHT22;4223;48.724;8.982;2022-11-15T04:14:58;5.90;99.90
8372;DHT22;4223;48.724;8.982;2022-11-15T04:17:43;6.00;99.90
8372;DHT22;4223;48.724;8.982;2022-11-15T04:20:17;6.00;99.90
8372;DHT22;4223;48.724;8.982;2022-11-15T04:23:06;6.00;99.90
8372;DHT22;4223;48.724;8.982;2022-11-15T04:25:50;6.00;99.90
8372;DHT22;4223;48.724;8.982;2022-11-15T04:28:17;6.00;99.90
8372;DHT22;4223;48.724;8.982;2022-11-15T04:30:44;6.00;99.90
8372;DHT22;4223;48.724;8.982;2022-11-15T04:33:11;6.00;99.90
8372;DHT22;4223;48.724;8.982;2022-11-15T04:35:39;6.00;99.90
8372;DHT22;4223;48.724;8.982;2022-11-15T04:38:09;6.00;99.90
8372;DHT22;4223;48.724;8.982;2022-11-15T04:40:36;6.00;99.90
8372;DHT22;4223;48.724;8.982;2022-11-15T04:43:03;6.00;99.90
8372;DHT22;4223;48.724;8.982;2022-11-15T04:45:30;6.00;99.90
8372;DHT22;4223;48.724;8.982;2022-11-15T04:47:57;6.00;99.90
8372;DHT22;4223;48.724;8.982;2022-11-15T04:50:24;6.00;99.90
8372;DHT22;4223;48.724;8.982;2022-11-15T04:52:53;6.00;99.90
8372;DHT22;4223;48.724;8.982;2022-11-15T04:55:20;6.00;99.90
8372;DHT22;4223;48.724;8.982;2022-11-15T04:57:48;6.00;99.90
8372;DHT22;4223;48.724;8.982;2022-11-15T05:00:23;6.00;99.90
8372;DHT22;4223;48.724;8.982;2022-11-15T05:02:50;5.90;99.90
8372;DHT22;4223;48.724;8.982;2022-11-15T05:05:35;5.90;99.90
8372;DHT22;4223;48.724;8.982;2022-11-15T05:08:03;5.80;99.90
8372;DHT22;4223;48.724;8.982;2022-11-15T05:10:30;5.70;99.90
8372;DHT22;4223;48.724;8.982;2022-11-15T05:12:58;5.70;99.90
8372;DHT22;4223;48.724;8.982;2022-11-15T05:15:25;5.70;99.90
8372;DHT22;4223;48.724;8.982;2022-11-15T05:17:57;5.70;99.90
8372;DHT22;4223;48.724;8.982;2022-11-15T05:20:24;5.70;99.90
8372;DHT22;4223;48.724;8.982;2022-11-15T05:22:51;5.70;99.90
8372;DHT22;4223;48.724;8.982;2022-11-15T05:25:20;5.70;99.90
8372;DHT22;4223;48.724;8.982;2022-11-15T05:27:47;5.70;99.90
8372;DHT22;4223;48.724;8.982;2022-11-15T05:30:14;5.70;99.90
8372;DHT22;4223;48.724;8.982;2022-11-15T05:32:41;5.70;99.90
8372;DHT22;4223;48.724;8.982;2022-11-15T05:35:13;5.70;99.90
8372;DHT22;4223;48.724;8.982;2022-11-15T05:37:43;5.70;99.90
8372;DHT22;4223;48.724;8.982;2022-11-15T05:40:10;5.70;99.90
8372;DHT22;4223;48.724;8.982;2022-11-15T05:42:39;5.70;99.90
8372;DHT22;4223;48.724;8.982;2022-11-15T05:45:06;5.70;99.90
8372;DHT22;4223;48.724;8.982;2022-11-15T05:47:35;5.70;99.90
8372;DHT22;4223;48.724;8.982;2022-11-15T05:50:04;5.60;99.90
8372;DHT22;4223;48.724;8.982;2022-11-15T05:52:34;5.60;99.90
8372;DHT22;4223;48.724;8.982;2022-11-15T05:55:05;5.50;99.90
8372;DHT22;4223;48.724;8.982;2022-11-15T05:57:33;5.50;99.90
8372;DHT22;4223;48.724;8.982;2022-11-15T06:00:03;5.50;99.90
8372;DHT22;4223;48.724;8.982;2022-11-15T06:02:30;5.40;99.90
8372;DHT22;4223;48.724;8.982;2022-11-15T06:04:57;5.30;99.90
8372;DHT22;4223;48.724;8.982;2022-11-15T06:07:24;5.30;99.90
8372;DHT22;4223;48.724;8.982;2022-11-15T06:09:51;5.20;99.90
8372;DHT22;4223;48.724;8.982;2022-11-15T06:12:18;5.20;99.90
8372;DHT22;4223;48.724;8.982;2022-11-15T06:14:45;5.20;99.90
8372;DHT22;4223;48.724;8.982;2022-11-15T06:17:13;5.20;99.90
8372;DHT22;4223;48.724;8.982;2022-11-15T06:19:40;5.20;99.90
8372;DHT22;4223;48.724;8.982;2022-11-15T06:22:07;5.20;99.90
8372;DHT22;4223;48.724;8.982;2022-11-15T06:24:34;5.20;99.90
8372;DHT22;4223;48.724;8.982;2022-11-15T06:27:01;5.20;99.90
8372;DHT22;4223;48.724;8.982;2022-11-15T06:29:28;5.20;99.90
8372;DHT22;4223;48.724;8.982;2022-11-15T06:31:55;5.20;99.90
8372;DHT22;4223;48.724;8.982;2022-11-15T06:34:23;5.20;99.90
8372;DHT22;4223;48.724;8.982;2022-11-15T06:36:50;5.20;99.90
8372;DHT22;4223;48.724;8.982;2022-11-15T06:39:17;5.20;99.90
8372;DHT22;4223;48.724;8.982;2022-11-15T06:41:44;5.20;99.90
8372;DHT22;4223;48.724;8.982;2022-11-15T06:44:11;5.20;99.90
8372;DHT22;4223;48.724;8.982;2022-11-15T06:46:37;5.30;99.90
8372;DHT22;4223;48.724;8.982;2022-11-15T06:49:04;5.30;99.90
8372;DHT22;4223;48.724;8.982;2022-11-15T06:51:32;5.40;99.90
8372;DHT22;4223;48.724;8.982;2022-11-15T06:53:59;5.50;99.90
8372;DHT22;4223;48.724;8.982;2022-11-15T06:56:26;5.50;99.90
8372;DHT22;4223;48.724;8.982;2022-11-15T06:58:53;5.60;99.90
8372;DHT22;4223;48.724;8.982;2022-11-15T07:01:20;5.60;99.90
8372;DHT22;4223;48.724;8.982;2022-11-15T07:03:47;5.70;99.90
8372;DHT22;4223;48.724;8.982;2022-11-15T07:06:13;5.70;99.90
8372;DHT22;4223;48.724;8.982;2022-11-15T07:08:42;5.80;99.90
8372;DHT22;4223;48.724;8.982;2022-11-15T07:11:09;5.80;99.90
8372;DHT22;4223;48.724;8.982;2022-11-15T07:13:36;5.90;99.90
8372;DHT22;4223;48.724;8.982;2022-11-15T07:16:03;6.00;99.90
8372;DHT22;4223;48.724;8.982;2022-11-15T07:18:31;6.10;99.90
8372;DHT22;4223;48.724;8.982;2022-11-15T07:21:01;6.20;99.90
8372;DHT22;4223;48.724;8.982;2022-11-15T07:23:28;6.30;99.90
8372;DHT22;4223;48.724;8.982;2022-11-15T07:25:57;6.50;99.90
8372;DHT22;4223;48.724;8.982;2022-11-15T07:28:24;6.70;99.90
8372;DHT22;4223;48.724;8.982;2022-11-15T07:30:51;6.80;99.90
8372;DHT22;4223;48.724;8.982;2022-11-15T07:33:18;6.90;99.90
8372;DHT22;4223;48.724;8.982;2022-11-15T07:35:45;7.10;99.90
8372;DHT22;4223;48.724;8.982;2022-11-15T07:38:15;7.20;99.90
8372;DHT22;4223;48.724;8.982;2022-11-15T07:40:45;7.40;99.90
8372;DHT22;4223;48.724;8.982;2022-11-15T07:43:13;7.50;99.90
8372;DHT22;4223;48.724;8.982;2022-11-15T07:45:41;7.60;99.90
8372;DHT22;4223;48.724;8.982;2022-11-15T07:48:08;7.70;99.90
8372;DHT22;4223;48.724;8.982;2022-11-15T07:50:35;7.80;99.90
8372;DHT22;4223;48.724;8.982;2022-11-15T07:53:02;7.90;99.90
8372;DHT22;4223;48.724;8.982;2022-11-15T07:55:29;8.00;99.90
8372;DHT22;4223;48.724;8.982;2022-11-15T07:58:00;8.10;99.90
8372;DHT22;4223;48.724;8.982;2022-11-15T08:00:29;8.30;99.90
8372;DHT22;4223;48.724;8.982;2022-11-15T08:03:02;8.40;99.90
8372;DHT22;4223;48.724;8.982;2022-11-15T08:05:29;8.50;99.90
8372;DHT22;4223;48.724;8.982;2022-11-15T08:07:56;8.50;99.90
8372;DHT22;4223;48.724;8.982;2022-11-15T08:10:23;8.60;99.90
8372;DHT22;4223;48.724;8.982;2022-11-15T08:12:57;8.60;99.90
8372;DHT22;4223;48.724;8.982;2022-11-15T08:15:23;8.60;99.90
8372;DHT22;4223;48.724;8.982;2022-11-15T08:17:55;8.70;99.90
8372;DHT22;4223;48.724;8.982;2022-11-15T08:20:22;8.80;99.90
8372;DHT22;4223;48.724;8.982;2022-11-15T08:22:49;8.80;99.90
8372;DHT22;4223;48.724;8.982;2022-11-15T08:25:15;9.00;99.90
8372;DHT22;4223;48.724;8.982;2022-11-15T08:27:43;9.20;97.50
8372;DHT22;4223;48.724;8.982;2022-11-15T08:30:11;9.30;95.40
8372;DHT22;4223;48.724;8.982;2022-11-15T08:32:38;9.70;97.50
8372;DHT22;4223;48.724;8.982;2022-11-15T08:35:07;9.90;91.00
8372;DHT22;4223;48.724;8.982;2022-11-15T08:37:34;10.20;84.20
8372;DHT22;4223;48.724;8.982;2022-11-15T08:40:01;10.50;78.20
8372;DHT22;4223;48.724;8.982;2022-11-15T08:42:28;10.50;65.60
8372;DHT22;4223;48.724;8.982;2022-11-15T08:44:55;10.70;54.40
8372;DHT22;4223;48.724;8.982;2022-11-15T08:47:22;11.00;54.50
8372;DHT22;4223;48.724;8.982;2022-11-15T08:49:49;11.20;1.00
8372;DHT22;4223;48.724;8.982;2022-11-15T08:52:17;11.20;1.00
8372;DHT22;4223;48.724;8.982;2022-11-15T08:54:44;11.20;1.00
8372;DHT22;4223;48.724;8.982;2022-11-15T08:57:11;11.20;1.00
8372;DHT22;4223;48.724;8.982;2022-11-15T08:59:38;11.50;1.00
8372;DHT22;4223;48.724;8.982;2022-11-15T09:02:05;11.90;1.00
8372;DHT22;4223;48.724;8.982;2022-11-15T09:04:33;12.60;1.00
8372;DHT22;4223;48.724;8.982;2022-11-15T09:06:59;13.00;1.00
8372;DHT22;4223;48.724;8.982;2022-11-15T09:09:28;12.50;1.00
8372;DHT22;4223;48.724;8.982;2022-11-15T09:11:54;12.20;1.00
8372;DHT22;4223;48.724;8.982;2022-11-15T09:14:21;11.90;1.00
8372;DHT22;4223;48.724;8.982;2022-11-15T09:16:48;11.60;1.00
8372;DHT22;4223;48.724;8.982;2022-11-15T09:19:15;11.30;1.00
8372;DHT22;4223;48.724;8.982;2022-11-15T09:21:42;11.30;1.00
8372;DHT22;4223;48.724;8.982;2022-11-15T09:24:09;11.20;1.00
8372;DHT22;4223;48.724;8.982;2022-11-15T09:26:37;11.30;1.00
8372;DHT22;4223;48.724;8.982;2022-11-15T09:29:04;11.50;1.00
8372;DHT22;4223;48.724;8.982;2022-11-15T09:31:31;11.60;1.00
8372;DHT22;4223;48.724;8.982;2022-11-15T09:33:58;12.10;1.00
8372;DHT22;4223;48.724;8.982;2022-11-15T09:36:25;12.60;1.00
8372;DHT22;4223;48.724;8.982;2022-11-15T09:38:51;12.60;1.00
8372;DHT22;4223;48.724;8.982;2022-11-15T09:41:34;12.80;1.00
8372;DHT22;4223;48.724;8.982;2022-11-15T09:44:17;13.10;99.90
8372;DHT22;4223;48.724;8.982;2022-11-15T09:46:52;13.00;99.90
8372;DHT22;4223;48.724;8.982;2022-11-15T09:49:22;12.70;1.00
8372;DHT22;4223;48.724;8.982;2022-11-15T09:51:51;12.50;1.00
8372;DHT22;4223;48.724;8.982;2022-11-15T09:54:26;12.30;1.00
8372;DHT22;4223;48.724;8.982;2022-11-15T09:56:56;12.10;1.00
8372;DHT22;4223;48.724;8.982;2022-11-15T09:59:37;12.20;1.00
8372;DHT22;4223;48.724;8.982;2022-11-15T10:02:17;12.20;1.00
8372;DHT22;4223;48.724;8.982;2022-11-15T10:04:46;12.20;1.00
8372;DHT22;4223;48.724;8.982;2022-11-15T10:07:18;12.20;1.00
8372;DHT22;4223;48.724;8.982;2022-11-15T10:09:51;12.20;1.00
8372;DHT22;4223;48.724;8.982;2022-11-15T10:12:19;12.20;1.00
8372;DHT22;4223;48.724;8.982;2022-11-15T10:14:49;12.20;1.00
8372;DHT22;4223;48.724;8.982;2022-11-15T10:17:46;12.30;1.00
8372;DHT22;4223;48.724;8.982;2022-11-15T10:20:20;12.20;1.00
8372;DHT22;4223;48.724;8.982;2022-11-15T10:22:49;12.20;1.00
8372;DHT22;4223;48.724;8.982;2022-11-15T10:25:20;12.30;1.00
8372;DHT22;4223;48.724;8.982;2022-11-15T10:27:53;12.40;1.00
8372;DHT22;4223;48.724;8.982;2022-11-15T10:30:23;12.30;1.00
8372;DHT22;4223;48.724;8.982;2022-11-15T10:32:50;12.30;1.00
8372;DHT22;4223;48.724;8.982;2022-11-15T10:35:19;12.30;1.00
8372;DHT22;4223;48.724;8.982;2022-11-15T10:37:47;12.40;1.00
8372;DHT22;4223;48.724;8.982;2022-11-15T10:40:17;12.40;1.00
8372;DHT22;4223;48.724;8.982;2022-11-15T10:42:45;12.40;1.00
8372;DHT22;4223;48.724;8.982;2022-11-15T10:45:26;12.40;1.00
8372;DHT22;4223;48.724;8.982;2022-11-15T10:47:53;12.40;1.00
8372;DHT22;4223;48.724;8.982;2022-11-15T10:50:29;12.50;1.00
8372;DHT22;4223;48.724;8.982;2022-11-15T10:52:57;12.40;1.00
8372;DHT22;4223;48.724;8.982;2022-11-15T10:55:27;12.30;1.00
8372;DHT22;4223;48.724;8.982;2022-11-15T10:57:56;12.30;1.00
8372;DHT22;4223;48.724;8.982;2022-11-15T11:00:32;12.20;1.00
8372;DHT22;4223;48.724;8.982;2022-11-15T11:03:01;12.20;1.00
8372;DHT22;4223;48.724;8.982;2022-11-15T11:05:31;12.10;1.00
8372;DHT22;4223;48.724;8.982;2022-11-15T11:08:01;12.20;1.00
8372;DHT22;4223;48.724;8.982;2022-11-15T11:10:29;12.20;1.00
8372;DHT22;4223;48.724;8.982;2022-11-15T11:13:12;12.20;1.00
8372;DHT22;4223;48.724;8.982;2022-11-15T11:15:42;12.30;1.00
8372;DHT22;4223;48.724;8.982;2022-11-15T11:18:15;12.30;1.00
8372;DHT22;4223;48.724;8.982;2022-11-15T11:20:51;12.30;1.00
8372;DHT22;4223;48.724;8.982;2022-11-15T11:23:34;12.40;1.00
8372;DHT22;4223;48.724;8.982;2022-11-15T11:26:29;12.60;1.00
8372;DHT22;4223;48.724;8.982;2022-11-15T11:29:04;12.70;1.00
8372;DHT22;4223;48.724;8.982;2022-11-15T11:31:41;12.80;1.00
8372;DHT22;4223;48.724;8.982;2022-11-15T11:34:16;12.80;1.00
8372;DHT22;4223;48.724;8.982;2022-11-15T11:36:52;12.80;1.00
8372;DHT22;4223;48.724;8.982;2022-11-15T11:39:29;12.90;1.00
8372;DHT22;4223;48.724;8.982;2022-11-15T11:42:03;12.80;1.00
8372;DHT22;4223;48.724;8.982;2022-11-15T11:44:44;12.90;1.00
8372;DHT22;4223;48.724;8.982;2022-11-15T11:47:21;13.00;1.00
8372;DHT22;4223;48.724;8.982;2022-11-15T11:49:51;13.20;1.00
8372;DHT22;4223;48.724;8.982;2022-11-15T11:52:23;13.40;1.00
8372;DHT22;4223;48.724;8.982;2022-11-15T11:54:58;13.50;1.00
8372;DHT22;4223;48.724;8.982;2022-11-15T11:57:32;13.40;1.00
8372;DHT22;4223;48.724;8.982;2022-11-15T12:00:03;13.50;1.00
8372;DHT22;4223;48.724;8.982;2022-11-15T12:02:37;13.50;1.00
8372;DHT22;4223;48.724;8.982;2022-11-15T12:05:10;13.60;1.00
8372;DHT22;4223;48.724;8.982;2022-11-15T12:07:40;13.60;1.00
8372;DHT22;4223;48.724;8.982;2022-11-15T12:10:17;13.60;1.00
8372;DHT22;4223;48.724;8.982;2022-11-15T12:12:51;13.50;1.00
8372;DHT22;4223;48.724;8.982;2022-11-15T12:15:23;13.50;1.00
8372;DHT22;4223;48.724;8.982;2022-11-15T12:17:54;13.30;1.00
8372;DHT22;4223;48.724;8.982;2022-11-15T12:20:23;13.30;1.00
8372;DHT22;4223;48.724;8.982;2022-11-15T12:22:54;13.20;1.00
8372;DHT22;4223;48.724;8.982;2022-11-15T12:25:27;13.10;1.00
8372;DHT22;4223;48.724;8.982;2022-11-15T12:27:59;13.00;1.00
8372;DHT22;4223;48.724;8.982;2022-11-15T12:30:41;13.00;1.00
8372;DHT22;4223;48.724;8.982;2022-11-15T12:33:30;12.90;1.00
8372;DHT22;4223;48.724;8.982;2022-11-15T12:35:59;12.80;1.00
8372;DHT22;4223;48.724;8.982;2022-11-15T12:38:52;12.80;1.00
8372;DHT22;4223;48.724;8.982;2022-11-15T12:41:20;12.80;1.00
8372;DHT22;4223;48.724;8.982;2022-11-15T12:43:48;12.80;1.00
8372;DHT22;4223;48.724;8.982;2022-11-15T12:49:44;12.90;1.00
8372;DHT22;4223;48.724;8.982;2022-11-15T12:52:11;12.80;1.00
8372;DHT22;4223;48.724;8.982;2022-11-15T12:57:49;12.90;1.00
8372;DHT22;4223;48.724;8.982;2022-11-15T13:00:44;12.90;1.00
8372;DHT22;4223;48.724;8.982;2022-11-15T13:03:26;12.90;2.60
8372;DHT22;4223;48.724;8.982;2022-11-15T13:06:10;13.00;1.00
8372;DHT22;4223;48.724;8.982;2022-11-15T13:08:56;13.00;1.00
8372;DHT22;4223;48.724;8.982;2022-11-15T13:11:43;13.00;1.00
8372;DHT22;4223;48.724;8.982;2022-11-15T13:14:40;13.10;1.00
8372;DHT22;4223;48.724;8.982;2022-11-15T13:17:23;13.00;1.40
8372;DHT22;4223;48.724;8.982;2022-11-15T13:19:55;13.00;1.00
8372;DHT22;4223;48.724;8.982;2022-11-15T13:22:25;13.00;1.00
8372;DHT22;4223;48.724;8.982;2022-11-15T13:25:48;13.00;1.00
8372;DHT22;4223;48.724;8.982;2022-11-15T13:28:24;12.90;1.00
8372;DHT22;4223;48.724;8.982;2022-11-15T13:30:53;13.00;1.00
8372;DHT22;4223;48.724;8.982;2022-11-15T13:33:22;13.00;1.00
8372;DHT22;4223;48.724;8.982;2022-11-15T13:35:51;13.00;1.00
8372;DHT22;4223;48.724;8.982;2022-11-15T13:38:28;13.00;1.00
8372;DHT22;4223;48.724;8.982;2022-11-15T13:40:55;12.90;1.00
8372;DHT22;4223;48.724;8.982;2022-11-15T13:43:29;12.90;1.00
8372;DHT22;4223;48.724;8.982;2022-11-15T13:46:05;12.80;1.00
8372;DHT22;4223;48.724;8.982;2022-11-15T13:48:32;12.70;1.00
8372;DHT22;4223;48.724;8.982;2022-11-15T13:51:00;12.70;1.00
8372;DHT22;4223;48.724;8.982;2022-11-15T13:53:30;12.70;1.00
8372;DHT22;4223;48.724;8.982;2022-11-15T13:55:59;12.60;1.00
8372;DHT22;4223;48.724;8.982;2022-11-15T13:58:26;12.60;1.00
8372;DHT22;4223;48.724;8.982;2022-11-15T14:00:59;12.60;1.00
8372;DHT22;4223;48.724;8.982;2022-11-15T14:03:28;12.60;1.00
8372;DHT22;4223;48.724;8.982;2022-11-15T14:06:04;12.50;1.00
8372;DHT22;4223;48.724;8.982;2022-11-15T14:08:34;12.50;1.00
8372;DHT22;4223;48.724;8.982;2022-11-15T14:11:16;12.50;1.00
8372;DHT22;4223;48.724;8.982;2022-11-15T14:14:02;12.60;1.00
8372;DHT22;4223;48.724;8.982;2022-11-15T14:16:33;12.60;1.00
8372;DHT22;4223;48.724;8.982;2022-11-15T14:19:02;12.60;1.00
8372;DHT22;4223;48.724;8.982;2022-11-15T14:21:30;12.70;1.00
8372;DHT22;4223;48.724;8.982;2022-11-15T14:24:15;12.70;1.00
8372;DHT22;4223;48.724;8.982;2022-11-15T14:26:42;12.70;1.00
8372;DHT22;4223;48.724;8.982;2022-11-15T14:29:22;12.70;1.00
8372;DHT22;4223;48.724;8.982;2022-11-15T14:31:50;12.70;1.00
8372;DHT22;4223;48.724;8.982;2022-11-15T14:34:17;12.70;1.00
8372;DHT22;4223;48.724;8.982;2022-11-15T14:36:43;12.70;1.00
8372;DHT22;4223;48.724;8.982;2022-11-15T14:39:10;12.70;1.00
8372;DHT22;4223;48.724;8.982;2022-11-15T14:41:38;12.60;1.00
8372;DHT22;4223;48.724;8.982;2022-11-15T14:44:06;12.60;1.00
8372;DHT22;4223;48.724;8.982;2022-11-15T14:46:33;12.50;13.40
8372;DHT22;4223;48.724;8.982;2022-11-15T14:48:59;12.40;6.90
8372;DHT22;4223;48.724;8.982;2022-11-15T14:51:26;12.40;16.40
8372;DHT22;4223;48.724;8.982;2022-11-15T14:53:53;12.30;22.60
8372;DHT22;4223;48.724;8.982;2022-11-15T14:56:20;12.30;36.50
8372;DHT22;4223;48.724;8.982;2022-11-15T14:58:49;12.20;40.80
8372;DHT22;4223;48.724;8.982;2022-11-15T15:01:19;12.20;39.00
8372;DHT22;4223;48.724;8.982;2022-11-15T15:03:46;12.20;34.80
8372;DHT22;4223;48.724;8.982;2022-11-15T15:06:13;12.20;47.00
8372;DHT22;4223;48.724;8.982;2022-11-15T15:08:40;12.10;53.50
8372;DHT22;4223;48.724;8.982;2022-11-15T15:11:10;12.10;55.00
8372;DHT22;4223;48.724;8.982;2022-11-15T15:13:40;12.00;58.20
8372;DHT22;4223;48.724;8.982;2022-11-15T15:16:08;12.00;54.80
8372;DHT22;4223;48.724;8.982;2022-11-15T15:18:35;11.90;55.30
8372;DHT22;4223;48.724;8.982;2022-11-15T15:21:02;11.90;57.30
8372;DHT22;4223;48.724;8.982;2022-11-15T15:23:32;11.90;52.50
8372;DHT22;4223;48.724;8.982;2022-11-15T15:26:01;11.90;61.80
8372;DHT22;4223;48.724;8.982;2022-11-15T15:28:28;11.80;71.70
8372;DHT22;4223;48.724;8.982;2022-11-15T15:30:54;11.80;77.50
8372;DHT22;4223;48.724;8.982;2022-11-15T15:33:23;11.70;81.30
8372;DHT22;4223;48.724;8.982;2022-11-15T15:35:49;11.70;77.50
8372;DHT22;4223;48.724;8.982;2022-11-15T15:38:16;11.70;62.00
8372;DHT22;4223;48.724;8.982;2022-11-15T15:40:43;11.70;58.70
8372;DHT22;4223;48.724;8.982;2022-11-15T15:43:10;11.80;44.40
8372;DHT22;4223;48.724;8.982;2022-11-15T15:45:38;11.80;46.30
8372;DHT22;4223;48.724;8.982;2022-11-15T15:48:05;11.80;45.80
8372;DHT22;4223;48.724;8.982;2022-11-15T15:50:34;11.80;56.90
8372;DHT22;4223;48.724;8.982;2022-11-15T15:53:02;11.70;60.60
8372;DHT22;4223;48.724;8.982;2022-11-15T15:55:32;11.70;63.60
8372;DHT22;4223;48.724;8.982;2022-11-15T15:57:59;11.70;63.40
8372;DHT22;4223;48.724;8.982;2022-11-15T16:00:26;11.60;73.20
8372;DHT22;4223;48.724;8.982;2022-11-15T16:02:53;11.60;71.40
8372;DHT22;4223;48.724;8.982;2022-11-15T16:05:20;11.60;67.00
8372;DHT22;4223;48.724;8.982;2022-11-15T16:07:48;11.60;71.60
8372;DHT22;4223;48.724;8.982;2022-11-15T16:10:22;11.50;67.90
8372;DHT22;4223;48.724;8.982;2022-11-15T16:12:50;11.60;62.30
8372;DHT22;4223;48.724;8.982;2022-11-15T16:15:18;11.50;60.50
8372;DHT22;4223;48.724;8.982;2022-11-15T16:17:48;11.50;56.20
8372;DHT22;4223;48.724;8.982;2022-11-15T16:20:31;11.50;65.70
8372;DHT22;4223;48.724;8.982;2022-11-15T16:23:01;11.50;66.60
8372;DHT22;4223;48.724;8.982;2022-11-15T16:25:28;11.40;75.70
8372;DHT22;4223;48.724;8.982;2022-11-15T16:27:55;11.40;75.10
8372;DHT22;4223;48.724;8.982;2022-11-15T16:30:22;11.30;81.90
8372;DHT22;4223;48.724;8.982;2022-11-15T16:32:49;11.30;81.40
8372;DHT22;4223;48.724;8.982;2022-11-15T16:35:16;11.20;77.10
8372;DHT22;4223;48.724;8.982;2022-11-15T16:37:44;11.20;67.70
8372;DHT22;4223;48.724;8.982;2022-11-15T16:40:24;11.20;61.30
8372;DHT22;4223;48.724;8.982;2022-11-15T16:42:52;11.30;67.60
8372;DHT22;4223;48.724;8.982;2022-11-15T16:45:20;11.20;75.70